createdAt,value
2018-07-30T00:02:03.889Z,98553.91
2018-07-30T00:04:31.982Z,98556.89
2018-07-30T00:07:00.073Z,98556.55
2018-07-30T00:09:28.163Z,98555.88
2018-07-30T00:11:56.256Z,98558.82
2018-07-30T00:14:24.351Z,98561.32
2018-07-30T00:16:52.456Z,98555.44
2018-07-30T00:19:20.597Z,98557.91
2018-07-30T00:21:48.873Z,98552.37
2018-07-30T00:24:17.445Z,98553.84
2018-07-30T00:26:45.554Z,98553.41
2018-07-30T00:29:14.425Z,98552.70
2018-07-30T00:31:42.508Z,98554.38
2018-07-30T00:34:10.617Z,98557.41
2018-07-30T00:36:38.724Z,98553.19
2018-07-30T00:39:09.625Z,98551.28
2018-07-30T00:41:38.989Z,98553.59
2018-07-30T00:44:07.386Z,98561.88
2018-07-30T00:46:35.679Z,98559.65
2018-07-30T00:49:03.780Z,98560.06
2018-07-30T00:51:31.868Z,98559.22
2018-07-30T00:54:00.143Z,98554.77
2018-07-30T00:56:28.263Z,98558.77
2018-07-30T00:58:56.707Z,98554.80
2018-07-30T01:01:24.837Z,98564.42
2018-07-30T01:03:53.154Z,98564.92
2018-07-30T01:06:21.239Z,98567.13
2018-07-30T01:08:49.344Z,98562.44
2018-07-30T01:11:17.447Z,98566.65
2018-07-30T01:13:45.575Z,98564.81
2018-07-30T01:16:13.676Z,98570.00
2018-07-30T01:18:41.794Z,98574.69
2018-07-30T01:24:03.264Z,98563.91
2018-07-30T01:26:31.352Z,98568.91
2018-07-30T01:29:00.189Z,98571.08
2018-07-30T01:31:28.500Z,98568.59
2018-07-30T01:33:56.595Z,98576.56
2018-07-30T01:36:24.700Z,98577.55
2018-07-30T01:38:52.807Z,98582.70
2018-07-30T01:41:20.909Z,98580.63
2018-07-30T01:43:49.033Z,98574.69
2018-07-30T01:46:17.123Z,98571.73
2018-07-30T01:48:45.229Z,98578.63
2018-07-30T01:51:13.359Z,98580.98
2018-07-30T01:53:41.447Z,98581.22
2018-07-30T01:56:09.931Z,98578.78
2018-07-30T01:58:38.034Z,98585.73
2018-07-30T02:01:06.259Z,98582.54
2018-07-30T02:03:34.361Z,98582.54
2018-07-30T02:06:02.452Z,98581.77
2018-07-30T02:08:30.534Z,98584.66
2018-07-30T02:10:58.944Z,98590.05
2018-07-30T02:13:27.116Z,98594.30
2018-07-30T02:15:55.206Z,98586.18
2018-07-30T02:18:23.317Z,98590.52
2018-07-30T02:20:51.407Z,98590.53
2018-07-30T02:23:19.547Z,98587.38
2018-07-30T02:25:47.836Z,98591.59
2018-07-30T02:28:22.941Z,98593.20
2018-07-30T02:30:51.035Z,98591.97
2018-07-30T02:33:19.145Z,98594.33
2018-07-30T02:35:47.284Z,98601.02
2018-07-30T02:38:15.368Z,98594.27
2018-07-30T02:40:43.523Z,98600.18
2018-07-30T02:43:12.267Z,98601.16
2018-07-30T02:45:40.376Z,98597.52
2018-07-30T02:48:08.566Z,98603.52
2018-07-30T02:50:36.640Z,98605.27
2018-07-30T02:53:05.316Z,98603.29
2018-07-30T02:55:33.392Z,98606.63
2018-07-30T02:58:01.519Z,98609.87
2018-07-30T03:00:30.576Z,98605.03
2018-07-30T03:02:58.691Z,98603.23
2018-07-30T03:05:26.814Z,98605.89
2018-07-30T03:07:54.927Z,98609.08
2018-07-30T03:10:23.014Z,98612.75
2018-07-30T03:12:51.113Z,98610.61
2018-07-30T03:15:19.205Z,98609.48
2018-07-30T03:17:47.315Z,98610.13
2018-07-30T03:20:15.424Z,98615.95
2018-07-30T03:22:43.518Z,98612.81
2018-07-30T03:25:11.633Z,98614.49
2018-07-30T03:27:39.715Z,98615.00
2018-07-30T03:30:09.210Z,98616.20
2018-07-30T03:32:37.347Z,98616.72
2018-07-30T03:35:05.967Z,98618.92
2018-07-30T03:37:34.044Z,98618.92
2018-07-30T03:40:02.150Z,98616.44
2018-07-30T03:42:30.237Z,98612.09
2018-07-30T03:44:58.341Z,98617.88
2018-07-30T03:47:27.082Z,98622.53
2018-07-30T03:49:55.323Z,98623.10
2018-07-30T03:52:23.421Z,98627.58
2018-07-30T04:00:57.982Z,98640.78
2018-07-30T04:03:26.183Z,98637.17
2018-07-30T04:05:54.447Z,98640.67
2018-07-30T04:08:22.561Z,98645.02
2018-07-30T04:10:50.741Z,98644.97
2018-07-30T04:13:18.903Z,98643.63
2018-07-30T04:15:47.065Z,98652.64
2018-07-30T04:18:15.297Z,98652.64
2018-07-30T04:20:44.302Z,98654.36
2018-07-30T04:23:12.464Z,98652.97
2018-07-30T04:25:40.605Z,98657.05
2018-07-30T04:28:08.745Z,98650.86
2018-07-30T04:30:36.962Z,98653.01
2018-07-30T04:33:05.046Z,98656.44
2018-07-30T04:35:33.140Z,98659.39
2018-07-30T04:38:01.231Z,98652.02
2018-07-30T04:40:29.324Z,98653.72
2018-07-30T22:13:07.109Z,98610.12
2018-07-30T22:15:35.447Z,98612.39
2018-07-30T22:18:03.543Z,98609.93
2018-07-30T22:20:31.705Z,98616.52
2018-07-30T22:22:59.735Z,98606.92
2018-07-30T22:25:27.837Z,98613.96
2018-07-30T22:27:55.919Z,98613.83
2018-07-30T22:30:25.020Z,98617.36
2018-07-30T22:32:53.120Z,98614.89
2018-07-30T22:35:21.495Z,98612.58
2018-07-30T22:37:50.296Z,98613.08
2018-07-30T22:40:18.397Z,98611.63
2018-07-30T22:42:46.509Z,98614.13
2018-07-30T22:45:14.790Z,98611.13
2018-07-30T22:47:42.904Z,98610.50
